sensor_id;sensor_type;location;lat;lon;timestamp;P1;durP1;ratioP1;P2;durP2;ratioP2
51224;SDS011;37298;42.688;23.312;2023-03-01T00:00:43;6.47;;;4.20;;
51224;SDS011;37298;42.688;23.312;2023-03-01T00:03:12;5.68;;;4.28;;
51224;SDS011;37298;42.688;23.312;2023-03-01T00:05:43;5.75;;;4.18;;
51224;SDS011;37298;42.688;23.312;2023-03-01T00:08:11;15.60;;;10.85;;
51224;SDS011;37298;42.688;23.312;2023-03-01T00:10:38;22.85;;;18.20;;
51224;SDS011;37298;42.688;23.312;2023-03-01T00:13:05;15.60;;;11.68;;
51224;SDS011;37298;42.688;23.312;2023-03-01T00:15:31;10.45;;;7.32;;
51224;SDS011;37298;42.688;23.312;2023-03-01T00:18:00;7.35;;;5.63;;
51224;SDS011;37298;42.688;23.312;2023-03-01T00:20:27;7.35;;;5.63;;
51224;SDS011;37298;42.688;23.312;2023-03-01T00:22:54;5.85;;;5.22;;
51224;SDS011;37298;42.688;23.312;2023-03-01T00:25:22;5.60;;;4.63;;
51224;SDS011;37298;42.688;23.312;2023-03-01T00:27:49;6.25;;;5.18;;
51224;SDS011;37298;42.688;23.312;2023-03-01T00:30:16;4.93;;;4.07;;
51224;SDS011;37298;42.688;23.312;2023-03-01T00:32:43;6.35;;;4.70;;
51224;SDS011;37298;42.688;23.312;2023-03-01T00:35:10;6.25;;;4.35;;
51224;SDS011;37298;42.688;23.312;2023-03-01T00:37:36;6.30;;;4.55;;
51224;SDS011;37298;42.688;23.312;2023-03-01T00:40:03;6.22;;;4.80;;
51224;SDS011;37298;42.688;23.312;2023-03-01T00:42:32;6.20;;;4.93;;
51224;SDS011;37298;42.688;23.312;2023-03-01T00:44:59;10.85;;;6.63;;
51224;SDS011;37298;42.688;23.312;2023-03-01T00:47:29;11.10;;;6.70;;
51224;SDS011;37298;42.688;23.312;2023-03-01T00:49:56;7.60;;;5.70;;
51224;SDS011;37298;42.688;23.312;2023-03-01T00:52:23;7.90;;;4.70;;
51224;SDS011;37298;42.688;23.312;2023-03-01T00:54:51;8.70;;;5.27;;
51224;SDS011;37298;42.688;23.312;2023-03-01T00:57:18;6.95;;;4.43;;
51224;SDS011;37298;42.688;23.312;2023-03-01T00:59:46;9.40;;;4.40;;
51224;SDS011;37298;42.688;23.312;2023-03-01T01:02:13;7.10;;;4.60;;
51224;SDS011;37298;42.688;23.312;2023-03-01T01:04:40;4.60;;;4.05;;
51224;SDS011;37298;42.688;23.312;2023-03-01T01:07:07;6.07;;;3.97;;
51224;SDS011;37298;42.688;23.312;2023-03-01T01:09:33;6.90;;;3.92;;
51224;SDS011;37298;42.688;23.312;2023-03-01T01:12:00;5.35;;;3.70;;
51224;SDS011;37298;42.688;23.312;2023-03-01T01:14:27;4.93;;;3.65;;
51224;SDS011;37298;42.688;23.312;2023-03-01T01:16:55;6.13;;;3.53;;
51224;SDS011;37298;42.688;23.312;2023-03-01T01:19:22;4.57;;;3.83;;
51224;SDS011;37298;42.688;23.312;2023-03-01T01:21:49;10.00;;;3.65;;
51224;SDS011;37298;42.688;23.312;2023-03-01T01:24:18;4.17;;;3.30;;
51224;SDS011;37298;42.688;23.312;2023-03-01T01:26:45;4.25;;;3.40;;
51224;SDS011;37298;42.688;23.312;2023-03-01T01:29:12;3.95;;;3.13;;
51224;SDS011;37298;42.688;23.312;2023-03-01T01:31:39;4.07;;;3.30;;
51224;SDS011;37298;42.688;23.312;2023-03-01T01:34:09;3.08;;;2.78;;
51224;SDS011;37298;42.688;23.312;2023-03-01T01:36:39;3.53;;;3.08;;
51224;SDS011;37298;42.688;23.312;2023-03-01T01:39:06;4.15;;;3.03;;
51224;SDS011;37298;42.688;23.312;2023-03-01T01:41:39;3.67;;;3.10;;
51224;SDS011;37298;42.688;23.312;2023-03-01T01:44:10;7.00;;;2.75;;
51224;SDS011;37298;42.688;23.312;2023-03-01T01:46:56;3.83;;;2.78;;
51224;SDS011;37298;42.688;23.312;2023-03-01T01:49:27;3.08;;;2.55;;
51224;SDS011;37298;42.688;23.312;2023-03-01T01:51:56;2.70;;;2.45;;
51224;SDS011;37298;42.688;23.312;2023-03-01T01:54:24;2.40;;;2.20;;
51224;SDS011;37298;42.688;23.312;2023-03-01T01:56:52;2.30;;;2.10;;
51224;SDS011;37298;42.688;23.312;2023-03-01T01:59:21;2.38;;;2.17;;
51224;SDS011;37298;42.688;23.312;2023-03-01T02:01:49;2.83;;;2.53;;
51224;SDS011;37298;42.688;23.312;2023-03-01T02:04:17;3.00;;;2.33;;
51224;SDS011;37298;42.688;23.312;2023-03-01T02:06:46;6.75;;;2.30;;
51224;SDS011;37298;42.688;23.312;2023-03-01T02:09:15;2.53;;;2.03;;
51224;SDS011;37298;42.688;23.312;2023-03-01T02:11:44;3.70;;;2.30;;
51224;SDS011;37298;42.688;23.312;2023-03-01T02:16:40;3.08;;;2.67;;
51224;SDS011;37298;42.688;23.312;2023-03-01T02:19:07;2.42;;;2.22;;
51224;SDS011;37298;42.688;23.312;2023-03-01T02:21:37;2.53;;;2.33;;
51224;SDS011;37298;42.688;23.312;2023-03-01T02:24:10;5.85;;;2.40;;
51224;SDS011;37298;42.688;23.312;2023-03-01T02:26:45;2.45;;;2.17;;
51224;SDS011;37298;42.688;23.312;2023-03-01T02:29:14;3.90;;;2.60;;
51224;SDS011;37298;42.688;23.312;2023-03-01T02:31:41;3.20;;;2.90;;
51224;SDS011;37298;42.688;23.312;2023-03-01T02:34:12;3.10;;;2.70;;
51224;SDS011;37298;42.688;23.312;2023-03-01T02:36:40;3.38;;;3.03;;
51224;SDS011;37298;42.688;23.312;2023-03-01T02:39:10;3.17;;;2.70;;
51224;SDS011;37298;42.688;23.312;2023-03-01T02:41:41;4.22;;;3.10;;
51224;SDS011;37298;42.688;23.312;2023-03-01T02:44:09;4.38;;;3.20;;
51224;SDS011;37298;42.688;23.312;2023-03-01T02:46:43;3.58;;;3.28;;
51224;SDS011;37298;42.688;23.312;2023-03-01T02:49:21;3.83;;;3.22;;
51224;SDS011;37298;42.688;23.312;2023-03-01T02:51:52;3.85;;;3.45;;
51224;SDS011;37298;42.688;23.312;2023-03-01T02:54:22;3.33;;;2.92;;
51224;SDS011;37298;42.688;23.312;2023-03-01T02:56:51;3.97;;;2.88;;
51224;SDS011;37298;42.688;23.312;2023-03-01T02:59:20;3.05;;;2.70;;
51224;SDS011;37298;42.688;23.312;2023-03-01T03:01:48;3.30;;;2.70;;
51224;SDS011;37298;42.688;23.312;2023-03-01T03:04:16;3.53;;;3.05;;
51224;SDS011;37298;42.688;23.312;2023-03-01T03:06:45;3.65;;;3.15;;
51224;SDS011;37298;42.688;23.312;2023-03-01T03:09:12;3.42;;;3.10;;
51224;SDS011;37298;42.688;23.312;2023-03-01T03:11:39;3.75;;;2.90;;
51224;SDS011;37298;42.688;23.312;2023-03-01T03:16:39;4.00;;;3.00;;
51224;SDS011;37298;42.688;23.312;2023-03-01T03:19:07;3.45;;;3.00;;
51224;SDS011;37298;42.688;23.312;2023-03-01T03:21:34;3.83;;;3.42;;
51224;SDS011;37298;42.688;23.312;2023-03-01T03:24:01;3.85;;;3.25;;
51224;SDS011;37298;42.688;23.312;2023-03-01T03:26:28;4.68;;;3.72;;
51224;SDS011;37298;42.688;23.312;2023-03-01T03:28:55;4.30;;;3.50;;
51224;SDS011;37298;42.688;23.312;2023-03-01T03:31:22;3.58;;;3.13;;
51224;SDS011;37298;42.688;23.312;2023-03-01T03:33:49;3.92;;;3.42;;
51224;SDS011;37298;42.688;23.312;2023-03-01T03:36:17;4.43;;;3.50;;
51224;SDS011;37298;42.688;23.312;2023-03-01T03:38:44;5.47;;;3.65;;
51224;SDS011;37298;42.688;23.312;2023-03-01T03:41:12;3.80;;;3.33;;
51224;SDS011;37298;42.688;23.312;2023-03-01T03:43:39;3.95;;;3.55;;
51224;SDS011;37298;42.688;23.312;2023-03-01T03:46:08;4.40;;;2.92;;
51224;SDS011;37298;42.688;23.312;2023-03-01T03:48:35;3.75;;;3.45;;
51224;SDS011;37298;42.688;23.312;2023-03-01T03:51:03;3.90;;;3.20;;
51224;SDS011;37298;42.688;23.312;2023-03-01T03:53:32;3.97;;;3.57;;
51224;SDS011;37298;42.688;23.312;2023-03-01T03:55:58;6.68;;;3.30;;
51224;SDS011;37298;42.688;23.312;2023-03-01T04:01:46;4.15;;;3.28;;
51224;SDS011;37298;42.688;23.312;2023-03-01T04:04:13;7.20;;;3.63;;
51224;SDS011;37298;42.688;23.312;2023-03-01T04:06:43;4.70;;;3.83;;
51224;SDS011;37298;42.688;23.312;2023-03-01T04:09:11;4.63;;;3.80;;
51224;SDS011;37298;42.688;23.312;2023-03-01T04:11:38;5.53;;;3.83;;
51224;SDS011;37298;42.688;23.312;2023-03-01T04:14:04;5.47;;;3.60;;
51224;SDS011;37298;42.688;23.312;2023-03-01T04:16:31;4.18;;;3.58;;
51224;SDS011;37298;42.688;23.312;2023-03-01T04:18:58;3.80;;;3.28;;
51224;SDS011;37298;42.688;23.312;2023-03-01T04:21:25;9.48;;;3.78;;
51224;SDS011;37298;42.688;23.312;2023-03-01T04:23:52;4.28;;;3.03;;
51224;SDS011;37298;42.688;23.312;2023-03-01T04:26:20;5.43;;;4.68;;
51224;SDS011;37298;42.688;23.312;2023-03-01T04:28:47;3.97;;;2.85;;
51224;SDS011;37298;42.688;23.312;2023-03-01T04:31:16;5.55;;;3.40;;
51224;SDS011;37298;42.688;23.312;2023-03-01T04:33:44;3.85;;;3.45;;
51224;SDS011;37298;42.688;23.312;2023-03-01T04:36:11;4.80;;;3.28;;
51224;SDS011;37298;42.688;23.312;2023-03-01T04:38:38;4.43;;;3.47;;
51224;SDS011;37298;42.688;23.312;2023-03-01T04:41:06;5.75;;;3.70;;
51224;SDS011;37298;42.688;23.312;2023-03-01T04:43:34;4.97;;;3.90;;
51224;SDS011;37298;42.688;23.312;2023-03-01T04:46:01;6.63;;;3.88;;
51224;SDS011;37298;42.688;23.312;2023-03-01T04:48:29;4.28;;;3.38;;
51224;SDS011;37298;42.688;23.312;2023-03-01T04:50:57;4.80;;;3.28;;
51224;SDS011;37298;42.688;23.312;2023-03-01T04:53:25;4.18;;;3.05;;
51224;SDS011;37298;42.688;23.312;2023-03-01T04:55:51;4.97;;;3.47;;
51224;SDS011;37298;42.688;23.312;2023-03-01T04:58:20;3.47;;;2.97;;
51224;SDS011;37298;42.688;23.312;2023-03-01T05:00:48;4.10;;;3.35;;
51224;SDS011;37298;42.688;23.312;2023-03-01T05:03:14;4.85;;;3.80;;
51224;SDS011;37298;42.688;23.312;2023-03-01T05:05:44;4.47;;;3.30;;
51224;SDS011;37298;42.688;23.312;2023-03-01T05:08:11;5.40;;;3.97;;
51224;SDS011;37298;42.688;23.312;2023-03-01T05:10:43;4.95;;;3.92;;
51224;SDS011;37298;42.688;23.312;2023-03-01T05:15:38;6.07;;;4.13;;
51224;SDS011;37298;42.688;23.312;2023-03-01T05:18:07;5.13;;;4.10;;
51224;SDS011;37298;42.688;23.312;2023-03-01T05:20:37;4.97;;;3.78;;
51224;SDS011;37298;42.688;23.312;2023-03-01T05:23:04;4.78;;;3.85;;
51224;SDS011;37298;42.688;23.312;2023-03-01T05:25:32;5.18;;;3.70;;
51224;SDS011;37298;42.688;23.312;2023-03-01T05:27:58;4.97;;;3.83;;
51224;SDS011;37298;42.688;23.312;2023-03-01T05:30:29;4.10;;;3.42;;
51224;SDS011;37298;42.688;23.312;2023-03-01T05:32:56;5.20;;;3.55;;
51224;SDS011;37298;42.688;23.312;2023-03-01T05:35:24;5.65;;;4.15;;
51224;SDS011;37298;42.688;23.312;2023-03-01T05:37:51;12.82;;;6.82;;
51224;SDS011;37298;42.688;23.312;2023-03-01T05:40:18;5.07;;;3.92;;
51224;SDS011;37298;42.688;23.312;2023-03-01T05:42:46;6.97;;;4.43;;
51224;SDS011;37298;42.688;23.312;2023-03-01T05:45:14;5.80;;;4.47;;
51224;SDS011;37298;42.688;23.312;2023-03-01T05:47:41;6.55;;;4.53;;
51224;SDS011;37298;42.688;23.312;2023-03-01T05:52:37;9.23;;;4.70;;
51224;SDS011;37298;42.688;23.312;2023-03-01T05:55:05;14.73;;;5.45;;
51224;SDS011;37298;42.688;23.312;2023-03-01T05:57:32;6.97;;;4.93;;
51224;SDS011;37298;42.688;23.312;2023-03-01T05:59:59;10.93;;;5.30;;
51224;SDS011;37298;42.688;23.312;2023-03-01T06:02:25;8.20;;;5.80;;
51224;SDS011;37298;42.688;23.312;2023-03-01T06:04:52;10.05;;;5.90;;
51224;SDS011;37298;42.688;23.312;2023-03-01T06:07:19;9.95;;;4.95;;
51224;SDS011;37298;42.688;23.312;2023-03-01T06:09:47;7.35;;;5.07;;
51224;SDS011;37298;42.688;23.312;2023-03-01T06:12:14;7.10;;;4.85;;
51224;SDS011;37298;42.688;23.312;2023-03-01T06:14:41;5.18;;;4.32;;
51224;SDS011;37298;42.688;23.312;2023-03-01T06:17:07;7.05;;;4.72;;
51224;SDS011;37298;42.688;23.312;2023-03-01T06:19:34;11.48;;;5.32;;
51224;SDS011;37298;42.688;23.312;2023-03-01T06:22:01;6.93;;;4.47;;
51224;SDS011;37298;42.688;23.312;2023-03-01T06:24:28;8.02;;;4.28;;
51224;SDS011;37298;42.688;23.312;2023-03-01T06:26:56;7.72;;;4.97;;
51224;SDS011;37298;42.688;23.312;2023-03-01T06:29:23;5.55;;;3.97;;
51224;SDS011;37298;42.688;23.312;2023-03-01T06:31:50;5.78;;;4.40;;
51224;SDS011;37298;42.688;23.312;2023-03-01T06:34:17;6.35;;;4.20;;
51224;SDS011;37298;42.688;23.312;2023-03-01T06:36:44;6.25;;;4.75;;
51224;SDS011;37298;42.688;23.312;2023-03-01T06:39:11;6.35;;;4.35;;
51224;SDS011;37298;42.688;23.312;2023-03-01T06:41:37;5.75;;;4.57;;
51224;SDS011;37298;42.688;23.312;2023-03-01T06:44:06;5.63;;;4.10;;
51224;SDS011;37298;42.688;23.312;2023-03-01T06:46:32;12.10;;;4.10;;
51224;SDS011;37298;42.688;23.312;2023-03-01T06:48:59;5.88;;;4.18;;
51224;SDS011;37298;42.688;23.312;2023-03-01T06:51:26;5.60;;;4.13;;
51224;SDS011;37298;42.688;23.312;2023-03-01T06:53:53;9.48;;;3.72;;
51224;SDS011;37298;42.688;23.312;2023-03-01T06:56:19;7.40;;;4.32;;
51224;SDS011;37298;42.688;23.312;2023-03-01T06:58:46;4.82;;;3.78;;
51224;SDS011;37298;42.688;23.312;2023-03-01T07:01:14;5.07;;;3.90;;
51224;SDS011;37298;42.688;23.312;2023-03-01T07:03:41;5.18;;;4.03;;
51224;SDS011;37298;42.688;23.312;2023-03-01T07:06:09;6.80;;;3.63;;
51224;SDS011;37298;42.688;23.312;2023-03-01T07:08:36;4.25;;;3.47;;
51224;SDS011;37298;42.688;23.312;2023-03-01T07:11:03;5.28;;;3.60;;
51224;SDS011;37298;42.688;23.312;2023-03-01T07:13:31;4.93;;;3.45;;
51224;SDS011;37298;42.688;23.312;2023-03-01T07:15:58;8.43;;;3.83;;
51224;SDS011;37298;42.688;23.312;2023-03-01T07:18:26;4.95;;;3.75;;
51224;SDS011;37298;42.688;23.312;2023-03-01T07:20:52;5.72;;;3.85;;
51224;SDS011;37298;42.688;23.312;2023-03-01T07:23:19;4.03;;;2.97;;
51224;SDS011;37298;42.688;23.312;2023-03-01T07:25:50;5.38;;;3.05;;
51224;SDS011;37298;42.688;23.312;2023-03-01T07:28:17;6.45;;;3.33;;
51224;SDS011;37298;42.688;23.312;2023-03-01T07:30:44;4.03;;;3.13;;
51224;SDS011;37298;42.688;23.312;2023-03-01T07:33:11;4.22;;;3.20;;
51224;SDS011;37298;42.688;23.312;2023-03-01T07:35:39;9.95;;;4.50;;
51224;SDS011;37298;42.688;23.312;2023-03-01T07:38:06;9.75;;;4.05;;
51224;SDS011;37298;42.688;23.312;2023-03-01T07:40:33;6.72;;;3.70;;
51224;SDS011;37298;42.688;23.312;2023-03-01T07:43:00;8.20;;;3.35;;
51224;SDS011;37298;42.688;23.312;2023-03-01T07:45:27;5.97;;;3.38;;
51224;SDS011;37298;42.688;23.312;2023-03-01T07:47:54;5.85;;;3.25;;
51224;SDS011;37298;42.688;23.312;2023-03-01T07:50:21;4.13;;;3.35;;
51224;SDS011;37298;42.688;23.312;2023-03-01T07:52:50;3.80;;;2.95;;
51224;SDS011;37298;42.688;23.312;2023-03-01T07:55:17;4.18;;;3.53;;
51224;SDS011;37298;42.688;23.312;2023-03-01T07:57:44;6.35;;;3.55;;
51224;SDS011;37298;42.688;23.312;2023-03-01T08:00:11;7.13;;;3.17;;
51224;SDS011;37298;42.688;23.312;2023-03-01T08:02:38;3.97;;;2.67;;
51224;SDS011;37298;42.688;23.312;2023-03-01T08:05:07;7.22;;;3.53;;
51224;SDS011;37298;42.688;23.312;2023-03-01T08:07:34;9.93;;;4.30;;
51224;SDS011;37298;42.688;23.312;2023-03-01T08:10:02;5.65;;;3.13;;
51224;SDS011;37298;42.688;23.312;2023-03-01T08:12:29;5.45;;;3.30;;
51224;SDS011;37298;42.688;23.312;2023-03-01T08:14:56;5.00;;;3.30;;
51224;SDS011;37298;42.688;23.312;2023-03-01T08:17:23;5.28;;;2.95;;
51224;SDS011;37298;42.688;23.312;2023-03-01T08:19:50;9.63;;;3.17;;
51224;SDS011;37298;42.688;23.312;2023-03-01T08:22:17;6.35;;;3.25;;
51224;SDS011;37298;42.688;23.312;2023-03-01T08:24:43;4.30;;;2.83;;
51224;SDS011;37298;42.688;23.312;2023-03-01T08:27:11;5.43;;;2.70;;
51224;SDS011;37298;42.688;23.312;2023-03-01T08:32:05;7.18;;;2.83;;
51224;SDS011;37298;42.688;23.312;2023-03-01T08:34:32;10.55;;;3.33;;
51224;SDS011;37298;42.688;23.312;2023-03-01T08:37:01;3.65;;;2.75;;
51224;SDS011;37298;42.688;23.312;2023-03-01T08:39:28;6.10;;;3.47;;
51224;SDS011;37298;42.688;23.312;2023-03-01T08:41:54;5.30;;;4.20;;
51224;SDS011;37298;42.688;23.312;2023-03-01T08:44:23;4.18;;;3.63;;
51224;SDS011;37298;42.688;23.312;2023-03-01T08:46:50;7.15;;;3.83;;
51224;SDS011;37298;42.688;23.312;2023-03-01T08:49:18;5.32;;;3.30;;
51224;SDS011;37298;42.688;23.312;2023-03-01T08:51:46;3.53;;;3.17;;
51224;SDS011;37298;42.688;23.312;2023-03-01T08:54:13;3.88;;;3.47;;
51224;SDS011;37298;42.688;23.312;2023-03-01T08:56:41;4.05;;;2.85;;
51224;SDS011;37298;42.688;23.312;2023-03-01T08:59:08;4.72;;;2.90;;
51224;SDS011;37298;42.688;23.312;2023-03-01T09:01:37;3.20;;;2.85;;
51224;SDS011;37298;42.688;23.312;2023-03-01T09:04:03;4.22;;;3.25;;
51224;SDS011;37298;42.688;23.312;2023-03-01T09:06:30;6.55;;;3.08;;
51224;SDS011;37298;42.688;23.312;2023-03-01T09:08:59;9.48;;;3.50;;
51224;SDS011;37298;42.688;23.312;2023-03-01T09:11:26;3.45;;;2.85;;
51224;SDS011;37298;42.688;23.312;2023-03-01T09:13:53;3.85;;;2.83;;
51224;SDS011;37298;42.688;23.312;2023-03-01T09:16:20;5.20;;;3.42;;
51224;SDS011;37298;42.688;23.312;2023-03-01T09:18:50;6.72;;;4.07;;
51224;SDS011;37298;42.688;23.312;2023-03-01T09:21:18;4.35;;;3.17;;
51224;SDS011;37298;42.688;23.312;2023-03-01T09:23:47;4.65;;;3.03;;
51224;SDS011;37298;42.688;23.312;2023-03-01T09:26:15;3.92;;;2.90;;
51224;SDS011;37298;42.688;23.312;2023-03-01T09:28:44;2.45;;;2.25;;
51224;SDS011;37298;42.688;23.312;2023-03-01T09:31:11;3.33;;;2.97;;
51224;SDS011;37298;42.688;23.312;2023-03-01T09:33:39;4.15;;;2.53;;
51224;SDS011;37298;42.688;23.312;2023-03-01T09:36:09;2.65;;;2.30;;
51224;SDS011;37298;42.688;23.312;2023-03-01T09:38:37;2.78;;;2.45;;
51224;SDS011;37298;42.688;23.312;2023-03-01T09:41:08;2.55;;;2.33;;
51224;SDS011;37298;42.688;23.312;2023-03-01T09:43:40;2.38;;;2.10;;
51224;SDS011;37298;42.688;23.312;2023-03-01T09:46:09;3.92;;;2.47;;
51224;SDS011;37298;42.688;23.312;2023-03-01T09:48:38;3.72;;;2.47;;
51224;SDS011;37298;42.688;23.312;2023-03-01T09:51:06;3.28;;;2.05;;
51224;SDS011;37298;42.688;23.312;2023-03-01T09:56:04;2.83;;;2.20;;
51224;SDS011;37298;42.688;23.312;2023-03-01T09:58:34;2.83;;;2.20;;
51224;SDS011;37298;42.688;23.312;2023-03-01T10:01:10;3.35;;;2.53;;
51224;SDS011;37298;42.688;23.312;2023-03-01T10:03:41;3.45;;;2.20;;
51224;SDS011;37298;42.688;23.312;2023-03-01T10:06:10;3.55;;;2.00;;
51224;SDS011;37298;42.688;23.312;2023-03-01T10:08:40;2.58;;;2.03;;
51224;SDS011;37298;42.688;23.312;2023-03-01T10:11:17;2.85;;;2.47;;
51224;SDS011;37298;42.688;23.312;2023-03-01T10:13:46;3.28;;;2.15;;
51224;SDS011;37298;42.688;23.312;2023-03-01T10:16:21;3.08;;;2.35;;
51224;SDS011;37298;42.688;23.312;2023-03-01T10:18:49;3.45;;;2.35;;
51224;SDS011;37298;42.688;23.312;2023-03-01T10:21:19;2.60;;;2.38;;
51224;SDS011;37298;42.688;23.312;2023-03-01T10:23:47;2.97;;;2.50;;
51224;SDS011;37298;42.688;23.312;2023-03-01T10:26:27;3.20;;;2.33;;
51224;SDS011;37298;42.688;23.312;2023-03-01T10:29:00;3.78;;;2.20;;
51224;SDS011;37298;42.688;23.312;2023-03-01T10:31:31;4.80;;;2.28;;
51224;SDS011;37298;42.688;23.312;2023-03-01T10:34:02;5.32;;;2.65;;
51224;SDS011;37298;42.688;23.312;2023-03-01T10:36:29;7.05;;;2.50;;
51224;SDS011;37298;42.688;23.312;2023-03-01T10:38:59;6.25;;;2.63;;
51224;SDS011;37298;42.688;23.312;2023-03-01T10:41:27;7.82;;;2.90;;
51224;SDS011;37298;42.688;23.312;2023-03-01T10:43:54;4.53;;;2.35;;
51224;SDS011;37298;42.688;23.312;2023-03-01T10:46:23;2.73;;;2.50;;
51224;SDS011;37298;42.688;23.312;2023-03-01T10:49:00;2.20;;;2.00;;
51224;SDS011;37298;42.688;23.312;2023-03-01T10:51:32;4.43;;;2.72;;
51224;SDS011;37298;42.688;23.312;2023-03-01T10:53:58;3.80;;;2.60;;
51224;SDS011;37298;42.688;23.312;2023-03-01T10:56:27;3.28;;;2.35;;
51224;SDS011;37298;42.688;23.312;2023-03-01T10:58:58;2.50;;;2.10;;
51224;SDS011;37298;42.688;23.312;2023-03-01T11:01:26;2.53;;;2.08;;
51224;SDS011;37298;42.688;23.312;2023-03-01T11:04:08;3.53;;;2.05;;
51224;SDS011;37298;42.688;23.312;2023-03-01T11:06:36;3.70;;;2.20;;
51224;SDS011;37298;42.688;23.312;2023-03-01T11:09:13;4.32;;;1.83;;
51224;SDS011;37298;42.688;23.312;2023-03-01T11:11:41;5.18;;;2.50;;
51224;SDS011;37298;42.688;23.312;2023-03-01T11:14:12;4.15;;;2.10;;
51224;SDS011;37298;42.688;23.312;2023-03-01T11:16:42;3.60;;;2.38;;
51224;SDS011;37298;42.688;23.312;2023-03-01T11:19:15;4.45;;;2.70;;
51224;SDS011;37298;42.688;23.312;2023-03-01T11:21:43;7.40;;;2.70;;
51224;SDS011;37298;42.688;23.312;2023-03-01T11:24:11;3.90;;;2.25;;
51224;SDS011;37298;42.688;23.312;2023-03-01T11:26:40;3.00;;;2.30;;
51224;SDS011;37298;42.688;23.312;2023-03-01T11:29:12;2.03;;;1.83;;
51224;SDS011;37298;42.688;23.312;2023-03-01T11:31:42;2.88;;;2.30;;
51224;SDS011;37298;42.688;23.312;2023-03-01T11:34:11;2.28;;;1.95;;
51224;SDS011;37298;42.688;23.312;2023-03-01T11:36:40;2.80;;;2.03;;
51224;SDS011;37298;42.688;23.312;2023-03-01T11:39:12;3.00;;;2.13;;
51224;SDS011;37298;42.688;23.312;2023-03-01T11:41:42;2.15;;;1.88;;
51224;SDS011;37298;42.688;23.312;2023-03-01T11:44:13;2.05;;;1.73;;
51224;SDS011;37298;42.688;23.312;2023-03-01T11:46:48;2.83;;;2.17;;
51224;SDS011;37298;42.688;23.312;2023-03-01T11:52:03;6.38;;;2.30;;
51224;SDS011;37298;42.688;23.312;2023-03-01T11:54:40;2.97;;;2.28;;
51224;SDS011;37298;42.688;23.312;2023-03-01T11:57:11;2.35;;;2.10;;
51224;SDS011;37298;42.688;23.312;2023-03-01T11:59:47;5.25;;;2.65;;
51224;SDS011;37298;42.688;23.312;2023-03-01T12:05:05;5.10;;;2.70;;
51224;SDS011;37298;42.688;23.312;2023-03-01T12:07:41;6.93;;;3.40;;
51224;SDS011;37298;42.688;23.312;2023-03-01T12:10:18;4.93;;;3.53;;
51224;SDS011;37298;42.688;23.312;2023-03-01T12:12:48;4.97;;;3.20;;
51224;SDS011;37298;42.688;23.312;2023-03-01T12:18:11;3.47;;;3.17;;
51224;SDS011;37298;42.688;23.312;2023-03-01T12:20:41;4.82;;;3.15;;
51224;SDS011;37298;42.688;23.312;2023-03-01T12:25:58;4.07;;;3.08;;
51224;SDS011;37298;42.688;23.312;2023-03-01T12:28:35;5.03;;;3.63;;
51224;SDS011;37298;42.688;23.312;2023-03-01T12:31:22;5.30;;;3.60;;
51224;SDS011;37298;42.688;23.312;2023-03-01T12:33:59;4.78;;;3.47;;
51224;SDS011;37298;42.688;23.312;2023-03-01T12:36:33;6.93;;;2.95;;
51224;SDS011;37298;42.688;23.312;2023-03-01T12:39:07;6.07;;;3.33;;
51224;SDS011;37298;42.688;23.312;2023-03-01T12:41:39;4.97;;;2.90;;
51224;SDS011;37298;42.688;23.312;2023-03-01T12:44:11;5.38;;;2.90;;
51224;SDS011;37298;42.688;23.312;2023-03-01T12:46:46;6.88;;;3.80;;
51224;SDS011;37298;42.688;23.312;2023-03-01T12:49:20;4.88;;;3.95;;
51224;SDS011;37298;42.688;23.312;2023-03-01T12:51:51;6.53;;;3.47;;
51224;SDS011;37298;42.688;23.312;2023-03-01T12:54:20;4.00;;;3.47;;
51224;SDS011;37298;42.688;23.312;2023-03-01T12:56:49;5.05;;;3.95;;
51224;SDS011;37298;42.688;23.312;2023-03-01T12:59:18;7.25;;;4.03;;
51224;SDS011;37298;42.688;23.312;2023-03-01T13:01:49;5.45;;;3.45;;
51224;SDS011;37298;42.688;23.312;2023-03-01T13:04:23;3.67;;;2.97;;
51224;SDS011;37298;42.688;23.312;2023-03-01T13:06:54;4.57;;;3.50;;
51224;SDS011;37298;42.688;23.312;2023-03-01T13:09:26;5.85;;;3.40;;
51224;SDS011;37298;42.688;23.312;2023-03-01T13:11:55;4.18;;;2.95;;
51224;SDS011;37298;42.688;23.312;2023-03-01T13:14:42;7.28;;;3.22;;
51224;SDS011;37298;42.688;23.312;2023-03-01T13:17:30;5.43;;;3.00;;
51224;SDS011;37298;42.688;23.312;2023-03-01T13:19:59;4.63;;;2.97;;
51224;SDS011;37298;42.688;23.312;2023-03-01T13:22:26;4.20;;;2.90;;
51224;SDS011;37298;42.688;23.312;2023-03-01T13:25:00;8.27;;;3.10;;
51224;SDS011;37298;42.688;23.312;2023-03-01T13:27:27;4.03;;;3.20;;
51224;SDS011;37298;42.688;23.312;2023-03-01T13:29:56;3.90;;;3.13;;
51224;SDS011;37298;42.688;23.312;2023-03-01T13:32:25;4.63;;;3.20;;
51224;SDS011;37298;42.688;23.312;2023-03-01T13:34:58;4.22;;;3.53;;
51224;SDS011;37298;42.688;23.312;2023-03-01T13:37:29;3.90;;;3.20;;
51224;SDS011;37298;42.688;23.312;2023-03-01T13:39:57;3.63;;;2.78;;
51224;SDS011;37298;42.688;23.312;2023-03-01T13:42:30;4.00;;;2.78;;
51224;SDS011;37298;42.688;23.312;2023-03-01T13:44:57;6.88;;;3.30;;
51224;SDS011;37298;42.688;23.312;2023-03-01T13:47:24;5.00;;;3.05;;
51224;SDS011;37298;42.688;23.312;2023-03-01T13:49:52;4.25;;;2.95;;
51224;SDS011;37298;42.688;23.312;2023-03-01T13:52:32;4.38;;;2.70;;
51224;SDS011;37298;42.688;23.312;2023-03-01T13:55:01;4.82;;;3.10;;
51224;SDS011;37298;42.688;23.312;2023-03-01T13:57:30;5.90;;;3.53;;
51224;SDS011;37298;42.688;23.312;2023-03-01T13:59:59;7.15;;;3.22;;
51224;SDS011;37298;42.688;23.312;2023-03-01T14:02:26;3.75;;;2.85;;
51224;SDS011;37298;42.688;23.312;2023-03-01T14:04:56;6.07;;;3.40;;
51224;SDS011;37298;42.688;23.312;2023-03-01T14:07:23;4.43;;;3.20;;
51224;SDS011;37298;42.688;23.312;2023-03-01T14:09:52;6.50;;;3.28;;
51224;SDS011;37298;42.688;23.312;2023-03-01T14:12:22;4.65;;;2.72;;
51224;SDS011;37298;42.688;23.312;2023-03-01T14:14:52;7.63;;;3.55;;
51224;SDS011;37298;42.688;23.312;2023-03-01T14:17:25;5.18;;;3.25;;
51224;SDS011;37298;42.688;23.312;2023-03-01T14:19:57;4.82;;;3.22;;
51224;SDS011;37298;42.688;23.312;2023-03-01T14:22:25;5.70;;;3.15;;
51224;SDS011;37298;42.688;23.312;2023-03-01T14:27:21;4.38;;;3.30;;
51224;SDS011;37298;42.688;23.312;2023-03-01T14:29:56;5.22;;;3.22;;
51224;SDS011;37298;42.688;23.312;2023-03-01T14:32:24;7.00;;;3.45;;
51224;SDS011;37298;42.688;23.312;2023-03-01T14:37:20;5.75;;;3.40;;
51224;SDS011;37298;42.688;23.312;2023-03-01T14:39:47;4.20;;;2.95;;
51224;SDS011;37298;42.688;23.312;2023-03-01T14:42:14;4.22;;;3.17;;
51224;SDS011;37298;42.688;23.312;2023-03-01T14:44:43;5.93;;;3.00;;
51224;SDS011;37298;42.688;23.312;2023-03-01T14:47:11;8.02;;;3.35;;
51224;SDS011;37298;42.688;23.312;2023-03-01T14:49:39;5.25;;;3.75;;
51224;SDS011;37298;42.688;23.312;2023-03-01T14:52:07;4.72;;;3.35;;
51224;SDS011;37298;42.688;23.312;2023-03-01T14:54:35;6.82;;;3.22;;
51224;SDS011;37298;42.688;23.312;2023-03-01T14:57:04;7.53;;;3.03;;
51224;SDS011;37298;42.688;23.312;2023-03-01T14:59:32;6.60;;;3.60;;
51224;SDS011;37298;42.688;23.312;2023-03-01T15:02:01;5.25;;;2.80;;
51224;SDS011;37298;42.688;23.312;2023-03-01T15:06:55;5.55;;;3.17;;
51224;SDS011;37298;42.688;23.312;2023-03-01T15:09:27;7.63;;;3.47;;
51224;SDS011;37298;42.688;23.312;2023-03-01T15:11:54;10.38;;;3.13;;
51224;SDS011;37298;42.688;23.312;2023-03-01T15:14:39;7.95;;;3.40;;
51224;SDS011;37298;42.688;23.312;2023-03-01T15:17:16;5.00;;;3.03;;
51224;SDS011;37298;42.688;23.312;2023-03-01T15:19:46;8.77;;;2.97;;